Time;durP1;ratioP1;P1;durP2;ratioP2;P2;SDS_P1;SDS_P2;PMS_P1;PMS_P2;Temp;Humidity;BMP_temperature;BMP_pressure;BME280_temperature;BME280_humidity;BME280_pressure;Samples;Min_cycle;Max_cycle;Signal;HPM_P1;HPM_P2
2022/10/09 00:00:08;;;;;;;;;;;5.00;99.90;;;;;;5079127;28;19928;-74
2022/10/09 00:02:38;;;;;;;;;;;6.10;99.90;;;;;;5083627;28;20019;-73
2022/10/09 00:05:05;;;;;;;;;;;6.10;99.90;;;;;;5081670;28;19943;-74
2022/10/09 00:07:32;;;;;;;;;;;6.10;99.90;;;;;;5090732;28;20005;-74
2022/10/09 00:09:58;;;;;;;;;;;5.60;99.90;;;;;;5091158;28;19924;-74
2022/10/09 00:12:25;;;;;;;;;;;6.10;99.90;;;;;;5090402;28;20014;-74
2022/10/09 00:14:53;;;;;;;;;;;6.20;99.90;;;;;;5090770;28;19928;-74
2022/10/09 00:17:20;;;;;;;;;;;7.50;99.90;;;;;;5090777;28;19928;-73
2022/10/09 00:19:46;;;;;;;;;;;6.20;99.90;;;;;;5077920;28;19971;-74
2022/10/09 00:22:13;;;;;;;;;;;6.20;99.90;;;;;;5070197;28;19986;-74
2022/10/09 00:24:41;;;;;;;;;;;6.10;99.90;;;;;;5081570;28;19932;-74
2022/10/09 00:27:08;;;;;;;;;;;6.20;99.90;;;;;;5099150;28;19932;-74
2022/10/09 00:29:35;;;;;;;;;;;6.10;99.90;;;;;;5090000;28;19927;-74
2022/10/09 00:32:03;;;;;;;;;;;6.10;99.90;;;;;;5102269;28;19932;-73
2022/10/09 00:34:30;;;;;;;;;;;6.10;99.90;;;;;;5083109;28;19928;-74
2022/10/09 00:36:56;;;;;;;;;;;6.10;99.90;;;;;;5074498;28;19924;-74
2022/10/09 00:39:23;;;;;;;;;;;6.10;99.90;;;;;;5104611;28;19932;-73
2022/10/09 00:41:50;;;;;;;;;;;6.00;99.90;;;;;;5077500;28;19928;-73
2022/10/09 00:44:35;;;;;;;;;;;6.00;99.90;;;;;;5069557;28;20184;-73
2022/10/09 00:47:03;;;;;;;;;;;6.00;99.90;;;;;;5069806;28;19928;-73
2022/10/09 00:49:31;;;;;;;;;;;6.00;99.90;;;;;;5090429;28;19928;-73
2022/10/09 00:51:59;;;;;;;;;;;6.00;99.90;;;;;;5082281;28;19928;-73
2022/10/09 00:54:26;;;;;;;;;;;;;;;;;;5076954;28;19928;-74
2022/10/09 00:56:53;;;;;;;;;;;5.90;99.90;;;;;;5088514;28;20368;-73
2022/10/09 00:59:21;;;;;;;;;;;5.90;99.90;;;;;;5076247;28;19982;-73
2022/10/09 01:01:47;;;;;;;;;;;5.90;99.90;;;;;;5070911;28;20234;-74
2022/10/09 01:04:15;;;;;;;;;;;5.90;99.90;;;;;;5069840;28;20435;-73
2022/10/09 01:06:49;;;;;;;;;;;5.90;99.90;;;;;;5069539;28;20443;-73
2022/10/09 01:09:19;;;;;;;;;;;5.90;99.90;;;;;;5077875;28;20034;-74
2022/10/09 01:11:48;;;;;;;;;;;5.90;99.90;;;;;;5086738;28;19928;-73
2022/10/09 01:14:19;;;;;;;;;;;5.90;99.90;;;;;;5089796;28;19939;-73
2022/10/09 01:16:49;;;;;;;;;;;4.50;99.90;;;;;;5070297;28;20461;-73
2022/10/09 01:19:25;;;;;;;;;;;5.80;99.90;;;;;;5069910;28;19928;-73
2022/10/09 01:21:56;;;;;;;;;;;5.80;99.90;;;;;;5079150;28;19928;-74
2022/10/09 01:24:27;;;;;;;;;;;5.80;99.90;;;;;;5085400;28;20351;-74
2022/10/09 01:27:00;;;;;;;;;;;5.80;99.90;;;;;;5089548;28;20391;-74
2022/10/09 01:29:31;;;;;;;;;;;5.70;99.90;;;;;;5079378;28;20259;-74
2022/10/09 01:31:58;;;;;;;;;;;5.70;99.90;;;;;;5087040;28;19924;-74
2022/10/09 01:34:26;;;;;;;;;;;5.70;99.90;;;;;;5109984;28;19954;-74
2022/10/09 01:36:53;;;;;;;;;;;5.70;99.90;;;;;;5104573;28;19981;-75
2022/10/09 01:39:22;;;;;;;;;;;5.60;99.90;;;;;;5050382;28;19950;-74
2022/10/09 01:41:50;;;;;;;;;;;5.60;99.90;;;;;;5068787;28;20452;-74
2022/10/09 01:44:19;;;;;;;;;;;5.50;99.90;;;;;;5069988;28;19978;-74
2022/10/09 01:46:46;;;;;;;;;;;5.50;99.90;;;;;;5081638;28;19936;-74
2022/10/09 01:49:17;;;;;;;;;;;5.50;99.90;;;;;;5075424;28;19933;-74
2022/10/09 01:51:49;;;;;;;;;;;5.50;99.90;;;;;;5070931;28;19924;-74
2022/10/09 01:54:18;;;;;;;;;;;5.40;99.90;;;;;;5075872;28;19944;-73
2022/10/09 01:56:47;;;;;;;;;;;5.40;99.90;;;;;;5076366;28;19973;-74
2022/10/09 01:59:16;;;;;;;;;;;5.40;99.90;;;;;;5072955;28;19925;-74
2022/10/09 02:01:44;;;;;;;;;;;5.30;99.90;;;;;;5085307;28;19974;-74
2022/10/09 02:04:12;;;;;;;;;;;5.30;99.90;;;;;;5100445;28;19928;-74
2022/10/09 02:06:40;;;;;;;;;;;5.40;99.90;;;;;;5093020;28;19928;-74
2022/10/09 02:09:08;;;;;;;;;;;5.40;99.90;;;;;;5089209;28;20396;-73
2022/10/09 02:11:35;;;;;;;;;;;5.40;99.90;;;;;;5080334;28;20330;-73
2022/10/09 02:14:02;;;;;;;;;;;5.30;99.90;;;;;;5068708;28;19924;-73
2022/10/09 02:16:33;;;;;;;;;;;5.30;99.90;;;;;;5071854;28;19981;-73
2022/10/09 02:19:03;;;;;;;;;;;5.30;99.90;;;;;;5067634;28;19973;-73
2022/10/09 02:21:34;;;;;;;;;;;5.30;99.90;;;;;;5077752;28;19973;-73
2022/10/09 02:24:01;;;;;;;;;;;5.30;99.90;;;;;;5079676;28;19932;-74
2022/10/09 02:26:28;;;;;;;;;;;5.30;99.90;;;;;;5088292;28;19973;-74
2022/10/09 02:28:55;;;;;;;;;;;5.20;99.90;;;;;;5076772;28;19931;-75
2022/10/09 02:31:24;;;;;;;;;;;5.20;99.90;;;;;;5081475;28;20343;-73
2022/10/09 02:33:54;;;;;;;;;;;5.20;99.90;;;;;;5067439;28;19932;-73
2022/10/09 02:36:22;;;;;;;;;;;5.20;99.90;;;;;;5072543;28;19985;-74
2022/10/09 02:38:49;;;;;;;;;;;5.20;99.90;;;;;;5070367;28;19928;-73
2022/10/09 02:41:15;;;;;;;;;;;5.20;99.90;;;;;;5070202;28;20652;-73
2022/10/09 02:43:42;;;;;;;;;;;5.20;99.90;;;;;;5075529;28;19929;-74
2022/10/09 02:46:09;;;;;;;;;;;5.20;99.90;;;;;;5068236;28;19928;-73
2022/10/09 02:48:35;;;;;;;;;;;5.20;99.90;;;;;;5067844;28;19924;-74
2022/10/09 02:51:02;;;;;;;;;;;5.20;99.90;;;;;;5068769;28;19932;-74
2022/10/09 02:53:30;;;;;;;;;;;5.20;99.90;;;;;;5082452;28;19928;-73
2022/10/09 02:55:56;;;;;;;;;;;5.20;99.90;;;;;;5091802;28;20414;-74
2022/10/09 02:58:23;;;;;;;;;;;5.20;99.90;;;;;;5080248;28;19924;-73
2022/10/09 03:00:50;;;;;;;;;;;5.20;99.90;;;;;;5094186;28;19928;-75
2022/10/09 03:03:17;;;;;;;;;;;5.20;99.90;;;;;;5093020;28;19924;-76
2022/10/09 03:05:44;;;;;;;;;;;5.10;99.90;;;;;;5085936;28;19993;-73
2022/10/09 03:08:10;;;;;;;;;;;5.10;99.90;;;;;;5076797;28;19935;-73
2022/10/09 03:10:38;;;;;;;;;;;5.10;99.90;;;;;;5067551;28;20363;-73
2022/10/09 03:13:05;;;;;;;;;;;5.10;99.90;;;;;;5087197;28;19928;-73
2022/10/09 03:15:33;;;;;;;;;;;5.10;99.90;;;;;;5074948;28;19994;-73
2022/10/09 03:18:00;;;;;;;;;;;5.10;99.90;;;;;;5067160;28;20439;-74
2022/10/09 03:20:27;;;;;;;;;;;5.10;99.90;;;;;;5068355;28;19933;-73
2022/10/09 03:22:53;;;;;;;;;;;5.00;99.90;;;;;;5076106;28;19997;-73
2022/10/09 03:25:20;;;;;;;;;;;5.00;99.90;;;;;;5077947;28;19928;-73
2022/10/09 03:27:48;;;;;;;;;;;5.00;99.90;;;;;;5098143;28;19992;-73
2022/10/09 03:30:15;;;;;;;;;;;5.00;99.90;;;;;;5074923;28;19943;-74
2022/10/09 03:32:41;;;;;;;;;;;4.90;99.90;;;;;;5097204;28;19924;-74
2022/10/09 03:35:08;;;;;;;;;;;4.90;99.90;;;;;;5107087;28;19927;-73
2022/10/09 03:37:35;;;;;;;;;;;5.00;99.90;;;;;;5091670;28;19928;-73
2022/10/09 03:40:02;;;;;;;;;;;5.00;99.90;;;;;;5075402;28;19925;-73
2022/10/09 03:42:28;;;;;;;;;;;5.00;99.90;;;;;;5067225;28;20295;-74
2022/10/09 03:44:59;;;;;;;;;;;5.00;99.90;;;;;;5066901;28;20354;-73
2022/10/09 03:47:26;;;;;;;;;;;5.00;99.90;;;;;;5083309;28;19924;-74
2022/10/09 03:49:52;;;;;;;;;;;4.90;99.90;;;;;;5092326;28;19985;-74
2022/10/09 03:52:19;;;;;;;;;;;5.00;99.90;;;;;;5074315;28;19939;-74
2022/10/09 03:54:46;;;;;;;;;;;5.00;99.90;;;;;;5086578;28;19939;-73
2022/10/09 03:57:13;;;;;;;;;;;5.00;99.90;;;;;;5087241;28;20005;-74
2022/10/09 03:59:39;;;;;;;;;;;5.00;99.90;;;;;;5078885;28;19932;-74
2022/10/09 04:02:07;;;;;;;;;;;5.00;99.90;;;;;;5078863;28;19924;-74
2022/10/09 04:04:34;;;;;;;;;;;5.00;99.90;;;;;;5075310;28;19924;-74
2022/10/09 04:07:00;;;;;;;;;;;5.00;99.90;;;;;;5066566;28;19932;-74
2022/10/09 04:09:27;;;;;;;;;;;5.00;99.90;;;;;;5067227;28;20003;-74
2022/10/09 04:11:54;;;;;;;;;;;5.10;99.90;;;;;;5068261;28;19936;-73
2022/10/09 04:14:20;;;;;;;;;;;5.10;99.90;;;;;;5070755;28;19928;-74
2022/10/09 04:16:47;;;;;;;;;;;5.10;99.90;;;;;;5070776;28;19970;-74
2022/10/09 04:19:15;;;;;;;;;;;5.10;99.90;;;;;;5058947;28;19981;-74
2022/10/09 04:21:42;;;;;;;;;;;5.00;99.90;;;;;;5061115;28;20286;-73
2022/10/09 04:24:08;;;;;;;;;;;5.00;99.90;;;;;;5072954;28;19928;-74
2022/10/09 04:26:35;;;;;;;;;;;5.00;99.90;;;;;;5069811;28;19929;-74
2022/10/09 04:29:02;;;;;;;;;;;5.00;99.90;;;;;;5078142;28;19950;-74
2022/10/09 04:31:28;;;;;;;;;;;4.90;99.90;;;;;;5085364;28;20462;-75
2022/10/09 04:33:55;;;;;;;;;;;4.90;99.90;;;;;;5094178;28;19936;-74
2022/10/09 04:36:23;;;;;;;;;;;4.90;99.90;;;;;;5078538;28;20035;-73
2022/10/09 04:38:51;;;;;;;;;;;4.90;99.90;;;;;;5070377;28;19990;-73
2022/10/09 04:41:18;;;;;;;;;;;4.90;99.90;;;;;;5070227;28;19932;-74
2022/10/09 04:43:44;;;;;;;;;;;4.90;99.90;;;;;;5070021;28;19925;-74
2022/10/09 04:46:12;;;;;;;;;;;4.90;99.90;;;;;;5063675;28;19935;-73
2022/10/09 04:48:39;;;;;;;;;;;4.90;99.90;;;;;;5091379;28;19928;-74
2022/10/09 04:51:07;;;;;;;;;;;4.80;99.90;;;;;;5079756;28;19928;-74
2022/10/09 04:53:35;;;;;;;;;;;4.80;99.90;;;;;;5078391;28;19940;-74
2022/10/09 04:56:02;;;;;;;;;;;4.80;99.90;;;;;;5070899;28;20355;-74
2022/10/09 04:58:29;;;;;;;;;;;4.70;99.90;;;;;;5082352;28;19936;-74
2022/10/09 05:00:56;;;;;;;;;;;4.70;99.90;;;;;;5083344;28;19932;-74
2022/10/09 05:03:22;;;;;;;;;;;4.70;99.90;;;;;;5089781;28;19928;-72
2022/10/09 05:05:49;;;;;;;;;;;4.70;99.90;;;;;;5086068;28;19954;-72
2022/10/09 05:08:16;;;;;;;;;;;4.80;99.90;;;;;;5090843;28;19993;-73
2022/10/09 05:10:44;;;;;;;;;;;4.80;99.90;;;;;;5085778;28;19939;-73
2022/10/09 05:13:10;;;;;;;;;;;4.80;99.90;;;;;;5068988;28;20133;-73
2022/10/09 05:15:37;;;;;;;;;;;4.80;99.90;;;;;;5069812;28;20022;-74
2022/10/09 05:18:04;;;;;;;;;;;4.80;99.90;;;;;;5071959;28;19928;-74
2022/10/09 05:20:30;;;;;;;;;;;4.70;99.90;;;;;;5069272;28;20288;-75
2022/10/09 05:22:57;;;;;;;;;;;4.70;99.90;;;;;;5084417;28;19924;-74
2022/10/09 05:25:24;;;;;;;;;;;4.70;99.90;;;;;;5077195;28;20046;-73
2022/10/09 05:27:52;;;;;;;;;;;4.80;99.90;;;;;;5098793;28;19954;-73
2022/10/09 05:30:19;;;;;;;;;;;4.70;99.90;;;;;;5086578;28;19973;-73
2022/10/09 05:32:45;;;;;;;;;;;4.70;99.90;;;;;;5088433;28;20274;-74
2022/10/09 05:35:12;;;;;;;;;;;4.70;99.90;;;;;;5069435;28;20230;-74
2022/10/09 05:37:38;;;;;;;;;;;4.70;99.90;;;;;;5093202;28;19928;-74
2022/10/09 05:40:06;;;;;;;;;;;4.70;99.90;;;;;;5102478;28;19928;-73
2022/10/09 05:42:32;;;;;;;;;;;4.70;99.90;;;;;;5084033;28;19923;-73
2022/10/09 05:45:00;;;;;;;;;;;4.60;99.90;;;;;;5089719;28;19927;-74
2022/10/09 05:47:29;;;;;;;;;;;4.70;99.90;;;;;;5089242;28;19989;-74
2022/10/09 05:49:55;;;;;;;;;;;4.60;99.90;;;;;;5088882;28;20388;-73
2022/10/09 05:52:22;;;;;;;;;;;4.60;99.90;;;;;;5080683;28;19923;-74
2022/10/09 05:54:49;;;;;;;;;;;4.70;99.90;;;;;;5109073;28;19931;-73
2022/10/09 05:57:16;;;;;;;;;;;4.70;99.90;;;;;;5081142;28;20035;-74
2022/10/09 05:59:43;;;;;;;;;;;4.70;99.90;;;;;;5083177;28;20179;-74
2022/10/09 06:02:11;;;;;;;;;;;4.70;99.90;;;;;;5091819;28;19932;-74
2022/10/09 06:04:37;;;;;;;;;;;4.70;99.90;;;;;;5091336;28;19924;-74
2022/10/09 06:07:04;;;;;;;;;;;4.80;99.90;;;;;;5088750;28;20381;-73
2022/10/09 06:09:31;;;;;;;;;;;4.90;99.90;;;;;;5088741;28;19928;-74
2022/10/09 06:11:57;;;;;;;;;;;4.90;99.90;;;;;;5085530;28;19939;-74
2022/10/09 06:14:24;;;;;;;;;;;5.00;99.90;;;;;;5088824;28;19920;-74
2022/10/09 06:16:51;;;;;;;;;;;5.00;99.90;;;;;;5085418;28;19924;-74
2022/10/09 06:19:19;;;;;;;;;;;5.90;99.90;;;;;;5076165;28;20344;-74
2022/10/09 06:21:47;;;;;;;;;;;5.20;99.90;;;;;;5067789;28;20413;-74
2022/10/09 06:24:18;;;;;;;;;;;5.20;99.90;;;;;;5068843;28;19920;-74
2022/10/09 06:26:45;;;;;;;;;;;5.30;99.90;;;;;;5070671;28;19924;-75
2022/10/09 06:29:12;;;;;;;;;;;5.40;99.90;;;;;;5081231;28;19985;-74
2022/10/09 06:31:38;;;;;;;;;;;5.60;99.90;;;;;;5080041;28;19928;-73
2022/10/09 06:34:05;;;;;;;;;;;5.80;99.90;;;;;;5088529;28;19931;-73
2022/10/09 06:36:34;;;;;;;;;;;6.00;99.90;;;;;;5083419;28;19980;-74
2022/10/09 06:39:01;;;;;;;;;;;6.40;99.90;;;;;;5058138;28;19925;-74
2022/10/09 06:41:29;;;;;;;;;;;6.80;99.90;;;;;;5067910;28;19931;-73
2022/10/09 06:43:56;;;;;;;;;;;7.40;99.90;;;;;;5067717;28;19932;-75
2022/10/09 06:46:24;;;;;;;;;;;8.00;99.90;;;;;;5068706;28;20351;-75
2022/10/09 06:48:51;;;;;;;;;;;8.30;99.90;;;;;;5072553;28;20455;-74
2022/10/09 06:51:19;;;;;;;;;;;8.80;99.90;;;;;;5075783;28;19924;-76
2022/10/09 06:53:48;;;;;;;;;;;9.30;99.90;;;;;;5079606;28;19928;-75
2022/10/09 06:56:15;;;;;;;;;;;10.00;99.90;;;;;;5099390;28;19924;-75
2022/10/09 06:58:42;;;;;;;;;;;11.80;99.90;;;;;;5082892;28;20001;-75
2022/10/09 07:01:09;;;;;;;;;;;11.20;99.90;;;;;;5084513;28;20010;-75
2022/10/09 07:03:37;;;;;;;;;;;11.80;99.90;;;;;;5094875;28;19924;-75
2022/10/09 07:06:07;;;;;;;;;;;12.50;99.90;;;;;;5080374;28;20065;-74
2022/10/09 07:08:36;;;;;;;;;;;13.00;99.90;;;;;;5080541;28;20217;-75
2022/10/09 07:11:09;;;;;;;;;;;13.60;99.90;;;;;;5063971;28;19935;-74
2022/10/09 07:13:36;;;;;;;;;;;14.00;99.90;;;;;;5089252;28;20416;-73
2022/10/09 07:16:02;;;;;;;;;;;14.40;99.90;;;;;;5073929;28;20365;-73
2022/10/09 07:18:29;;;;;;;;;;;14.70;99.90;;;;;;5087476;28;19977;-74
2022/10/09 07:20:56;;;;;;;;;;;15.10;99.90;;;;;;5121591;22;19928;-75
2022/10/09 07:23:22;;;;;;;;;;;15.80;99.90;;;;;;5104123;28;19937;-75
2022/10/09 07:25:49;;;;;;;;;;;15.50;99.90;;;;;;5090052;28;19993;-76
2022/10/09 07:28:17;;;;;;;;;;;15.80;99.90;;;;;;5094533;28;19993;-76
2022/10/09 07:30:44;;;;;;;;;;;16.00;99.90;;;;;;5108861;28;19935;-75
2022/10/09 07:33:10;;;;;;;;;;;16.30;99.90;;;;;;5083085;28;19931;-75
2022/10/09 07:35:37;;;;;;;;;;;16.50;99.90;;;;;;5096468;28;19928;-77
2022/10/09 07:38:04;;;;;;;;;;;16.70;99.90;;;;;;5095079;28;19924;-77
2022/10/09 07:40:33;;;;;;;;;;;16.80;99.90;;;;;;5589481;22;19973;-76
2022/10/09 07:43:00;;;;;;;;;;;16.80;99.90;;;;;;5130566;28;19935;-76
2022/10/09 07:45:28;;;;;;;;;;;16.90;99.90;;;;;;5119209;27;19949;-76
2022/10/09 07:47:55;;;;;;;;;;;17.40;99.90;;;;;;5131734;27;19935;-76
2022/10/09 07:50:21;;;;;;;;;;;17.00;99.90;;;;;;5129847;27;19930;-76
2022/10/09 07:52:48;;;;;;;;;;;17.10;99.90;;;;;;5131302;27;19950;-76
2022/10/09 07:55:15;;;;;;;;;;;18.40;99.90;;;;;;5130248;27;19939;-76
2022/10/09 07:57:41;;;;;;;;;;;17.00;99.90;;;;;;5113756;28;19924;-76
2022/10/09 08:00:09;;;;;;;;;;;16.80;99.90;;;;;;5121647;27;19927;-75
2022/10/09 08:02:40;;;;;;;;;;;16.80;99.90;;;;;;5129138;27;19927;-76
2022/10/09 08:05:07;;;;;;;;;;;16.80;99.90;;;;;;5132855;27;19973;-76
2022/10/09 08:07:35;;;;;;;;;;;16.70;99.90;;;;;;5132250;27;19923;-75
2022/10/09 08:10:02;;;;;;;;;;;16.80;99.90;;;;;;5133466;27;19928;-76
2022/10/09 08:12:28;;;;;;;;;;;16.90;99.90;;;;;;5129908;27;19931;-76
2022/10/09 08:14:55;;;;;;;;;;;17.10;99.90;;;;;;5128363;27;19928;-76
2022/10/09 08:17:22;;;;;;;;;;;17.60;99.90;;;;;;5128299;27;19923;-76
2022/10/09 08:19:50;;;;;;;;;;;17.40;99.90;;;;;;5127072;27;20587;-76
2022/10/09 08:22:17;;;;;;;;;;;17.50;99.90;;;;;;5120689;27;19943;-76
2022/10/09 08:24:44;;;;;;;;;;;17.70;99.90;;;;;;5111681;28;20494;-76
2022/10/09 08:27:10;;;;;;;;;;;17.70;99.90;;;;;;5111445;28;19927;-76
2022/10/09 08:29:37;;;;;;;;;;;17.70;99.90;;;;;;5120520;27;19928;-75
2022/10/09 08:32:03;;;;;;;;;;;17.70;99.90;;;;;;5131494;27;19972;-75
2022/10/09 08:34:30;;;;;;;;;;;17.70;99.90;;;;;;5123276;27;19977;-75
2022/10/09 08:36:58;;;;;;;;;;;17.70;99.90;;;;;;5127369;27;19987;-74
2022/10/09 08:39:29;;;;;;;;;;;17.70;99.90;;;;;;5127537;27;20314;-75
2022/10/09 08:42:00;;;;;;;;;;;17.70;99.90;;;;;;5122292;27;19927;-75
2022/10/09 08:44:29;;;;;;;;;;;17.70;99.90;;;;;;5126603;27;19954;-74
2022/10/09 08:46:59;;;;;;;;;;;17.60;99.90;;;;;;5126981;27;19927;-76
2022/10/09 08:49:30;;;;;;;;;;;17.50;99.90;;;;;;5127180;27;20342;-76
2022/10/09 08:52:03;;;;;;;;;;;17.50;99.90;;;;;;5126871;27;19924;-76
2022/10/09 08:54:32;;;;;;;;;;;17.50;99.90;;;;;;5123655;27;20014;-75
2022/10/09 08:57:00;;;;;;;;;;;17.40;99.90;;;;;;5115365;27;20055;-75
2022/10/09 08:59:27;;;;;;;;;;;17.00;99.90;;;;;;5131073;27;19976;-75
2022/10/09 09:01:59;;;;;;;;;;;17.00;99.90;;;;;;5121172;27;19931;-75
2022/10/09 09:04:33;;;;;;;;;;;16.70;99.90;;;;;;5123481;27;19931;-75
2022/10/09 09:07:06;;;;;;;;;;;16.40;99.90;;;;;;5121923;27;20289;-75
2022/10/09 09:09:38;;;;;;;;;;;15.80;99.90;;;;;;5131202;27;19946;-76
2022/10/09 09:12:09;;;;;;;;;;;15.80;99.90;;;;;;5128028;27;19928;-76
2022/10/09 09:14:46;;;;;;;;;;;15.60;99.90;;;;;;5128476;27;19923;-76
2022/10/09 09:17:18;;;;;;;;;;;15.40;99.90;;;;;;5134782;27;19924;-76
2022/10/09 09:19:55;;;;;;;;;;;15.40;99.90;;;;;;5123130;27;19935;-76
2022/10/09 09:22:25;;;;;;;;;;;15.30;99.90;;;;;;5131181;27;19931;-76
2022/10/09 09:24:53;;;;;;;;;;;15.30;99.90;;;;;;5128849;27;20410;-76
2022/10/09 09:27:21;;;;;;;;;;;15.30;99.90;;;;;;5119828;27;19923;-76
2022/10/09 09:29:50;;;;;;;;;;;15.30;99.90;;;;;;5121338;27;19988;-76
2022/10/09 09:32:19;;;;;;;;;;;15.30;99.90;;;;;;5120641;27;19927;-76
2022/10/09 09:34:46;;;;;;;;;;;15.40;99.90;;;;;;5118043;27;19927;-76
2022/10/09 09:37:13;;;;;;;;;;;15.50;99.90;;;;;;5130719;27;19976;-77
2022/10/09 09:39:41;;;;;;;;;;;15.50;99.90;;;;;;5121381;27;19934;-77
2022/10/09 09:42:13;;;;;;;;;;;15.60;99.90;;;;;;5132363;27;19927;-77
2022/10/09 09:44:42;;;;;;;;;;;15.70;99.90;;;;;;5116147;27;19924;-77
2022/10/09 09:47:12;;;;;;;;;;;15.90;99.90;;;;;;5114822;27;19923;-76
2022/10/09 09:49:38;;;;;;;;;;;16.00;99.90;;;;;;5119295;27;19989;-76
2022/10/09 09:52:07;;;;;;;;;;;16.10;99.90;;;;;;5123905;27;19927;-76
2022/10/09 09:54:34;;;;;;;;;;;16.20;99.90;;;;;;5128060;27;20584;-76
2022/10/09 09:57:10;;;;;;;;;;;16.30;99.90;;;;;;5129528;27;19928;-76
2022/10/09 09:59:38;;;;;;;;;;;16.40;99.90;;;;;;5122987;27;19972;-76
2022/10/09 10:02:11;;;;;;;;;;;16.40;99.90;;;;;;5126343;27;19994;-76
2022/10/09 10:04:47;;;;;;;;;;;16.50;99.90;;;;;;5131325;27;19924;-76
2022/10/09 10:07:14;;;;;;;;;;;16.60;99.90;;;;;;5124085;27;20392;-76
2022/10/09 10:09:41;;;;;;;;;;;16.70;99.90;;;;;;5120283;27;20011;-77
2022/10/09 10:12:21;;;;;;;;;;;16.80;99.90;;;;;;5126311;27;20417;-76
2022/10/09 10:14:49;;;;;;;;;;;16.90;99.90;;;;;;5121718;27;20293;-77
2022/10/09 10:17:25;;;;;;;;;;;16.60;99.90;;;;;;5114428;27;19931;-76
2022/10/09 10:19:51;;;;;;;;;;;17.10;99.90;;;;;;5128223;27;19938;-77
2022/10/09 10:22:22;;;;;;;;;;;17.20;99.90;;;;;;5131024;27;20396;-76
2022/10/09 10:24:51;;;;;;;;;;;17.30;99.90;;;;;;5114861;27;19981;-77
2022/10/09 10:27:22;;;;;;;;;;;17.40;99.90;;;;;;5109632;28;19927;-77
2022/10/09 10:29:50;;;;;;;;;;;17.50;99.90;;;;;;5127708;27;19934;-77
2022/10/09 10:32:20;;;;;;;;;;;17.60;99.90;;;;;;5130317;27;20407;-77
2022/10/09 10:34:49;;;;;;;;;;;17.80;99.90;;;;;;5113926;27;19935;-76
2022/10/09 10:37:23;;;;;;;;;;;17.90;99.90;;;;;;5113083;28;20484;-77
2022/10/09 10:39:52;;;;;;;;;;;17.90;99.90;;;;;;5123978;27;19923;-77
2022/10/09 10:42:22;;;;;;;;;;;17.90;99.90;;;;;;5130533;27;19923;-77
2022/10/09 10:44:52;;;;;;;;;;;17.90;99.90;;;;;;5129843;27;19927;-77
2022/10/09 10:47:21;;;;;;;;;;;17.80;99.90;;;;;;5125511;27;19923;-77
2022/10/09 10:49:48;;;;;;;;;;;17.80;99.90;;;;;;5116194;27;19927;-76
2022/10/09 10:52:19;;;;;;;;;;;17.90;99.90;;;;;;5108938;28;19927;-76
2022/10/09 10:54:49;;;;;;;;;;;17.90;99.90;;;;;;5109472;28;19928;-76
2022/10/09 10:57:20;;;;;;;;;;;18.10;99.90;;;;;;5123471;27;19935;-76
2022/10/09 10:59:55;;;;;;;;;;;18.20;99.90;;;;;;5117246;27;20414;-77
2022/10/09 11:02:36;;;;;;;;;;;18.30;99.90;;;;;;5113280;27;19997;-75
2022/10/09 11:05:10;;;;;;;;;;;18.40;99.90;;;;;;5114698;27;20398;-76
2022/10/09 11:07:42;;;;;;;;;;;18.50;99.90;;;;;;5132514;27;20414;-77
2022/10/09 11:10:15;;;;;;;;;;;18.70;99.90;;;;;;5128441;28;19924;-75
2022/10/09 11:12:46;;;;;;;;;;;18.80;99.90;;;;;;5121953;28;19927;-77
2022/10/09 11:15:18;;;;;;;;;;;19.00;99.90;;;;;;5111405;28;20403;-75
2022/10/09 11:17:50;;;;;;;;;;;19.20;99.90;;;;;;5117432;28;19930;-77
2022/10/09 11:20:25;;;;;;;;;;;19.30;99.90;;;;;;5129268;27;19976;-76
2022/10/09 11:23:00;;;;;;;;;;;19.30;99.90;;;;;;5123561;27;19935;-76
2022/10/09 11:25:29;;;;;;;;;;;19.40;99.90;;;;;;5127588;27;19935;-76
2022/10/09 11:27:58;;;;;;;;;;;19.50;99.90;;;;;;5123007;27;19927;-76
2022/10/09 11:30:28;;;;;;;;;;;19.50;99.90;;;;;;5112859;28;20066;-76
2022/10/09 11:32:57;;;;;;;;;;;19.60;99.90;;;;;;5125397;27;19927;-76
2022/10/09 11:35:25;;;;;;;;;;;19.70;99.90;;;;;;5131666;27;19932;-76
2022/10/09 11:37:57;;;;;;;;;;;19.80;99.90;;;;;;5133122;27;20040;-75
2022/10/09 11:40:25;;;;;;;;;;;19.90;99.90;;;;;;5129418;27;19928;-75
2022/10/09 11:42:56;;;;;;;;;;;20.00;99.90;;;;;;5112701;28;19932;-75
2022/10/09 11:45:28;;;;;;;;;;;20.10;99.90;;;;;;5113518;27;19935;-76
2022/10/09 11:47:59;;;;;;;;;;;20.20;99.90;;;;;;5131439;27;19954;-76
2022/10/09 11:50:39;;;;;;;;;;;20.20;99.90;;;;;;5119093;27;19923;-75
2022/10/09 11:53:08;;;;;;;;;;;20.10;99.90;;;;;;5124537;27;19943;-75
2022/10/09 11:55:36;;;;;;;;;;;20.20;99.90;;;;;;5126692;27;20007;-75
2022/10/09 11:58:20;;;;;;;;;;;20.20;99.90;;;;;;5122439;27;20409;-74
2022/10/09 12:00:49;;;;;;;;;;;20.20;99.90;;;;;;5116341;27;20307;-74
2022/10/09 12:03:32;;;;;;;;;;;20.20;99.90;;;;;;5119081;27;19938;-75
2022/10/09 12:06:03;;;;;;;;;;;20.30;99.90;;;;;;5122122;27;19966;-74
2022/10/09 12:08:30;;;;;;;;;;;20.20;99.90;;;;;;5116850;27;19945;-74
2022/10/09 12:10:58;;;;;;;;;;;20.30;99.90;;;;;;5117224;27;20039;-74
2022/10/09 12:13:28;;;;;;;;;;;20.40;99.90;;;;;;5123110;27;19939;-75
2022/10/09 12:15:56;;;;;;;;;;;20.60;99.90;;;;;;5131609;27;19928;-76
2022/10/09 12:18:24;;;;;;;;;;;20.60;99.90;;;;;;5128612;27;19928;-75
2022/10/09 12:20:54;;;;;;;;;;;20.70;99.90;;;;;;5140110;27;19928;-75
2022/10/09 12:23:22;;;;;;;;;;;20.60;99.90;;;;;;5133980;27;20338;-75
2022/10/09 12:25:49;;;;;;;;;;;20.50;99.90;;;;;;5128928;27;19927;-75
2022/10/09 12:28:20;;;;;;;;;;;20.50;99.90;;;;;;5123815;27;19930;-75
2022/10/09 12:30:48;;;;;;;;;;;20.50;99.90;;;;;;5125110;27;19927;-75
2022/10/09 12:33:20;;;;;;;;;;;20.60;99.90;;;;;;5124786;27;20022;-75
2022/10/09 12:35:57;;;;;;;;;;;20.70;99.90;;;;;;5132372;27;20435;-75
2022/10/09 12:38:26;;;;;;;;;;;20.80;99.90;;;;;;5133015;27;20003;-75
2022/10/09 12:40:54;;;;;;;;;;;20.80;99.90;;;;;;5132528;27;19928;-75
2022/10/09 12:43:22;;;;;;;;;;;20.90;99.90;;;;;;5131702;27;20308;-75
2022/10/09 12:45:50;;;;;;;;;;;20.90;99.90;;;;;;5131667;27;19967;-75
2022/10/09 12:48:18;;;;;;;;;;;20.80;99.90;;;;;;5133943;27;20010;-75
2022/10/09 12:50:45;;;;;;;;;;;20.90;99.90;;;;;;5122238;27;20334;-75
2022/10/09 12:53:14;;;;;;;;;;;21.00;99.90;;;;;;5128336;27;19932;-75
2022/10/09 12:55:44;;;;;;;;;;;21.00;99.90;;;;;;5111827;28;19969;-75
2022/10/09 12:58:15;;;;;;;;;;;21.00;99.90;;;;;;5115582;27;19927;-75
2022/10/09 13:00:42;;;;;;;;;;;21.00;99.90;;;;;;5129239;27;19927;-75
2022/10/09 13:03:22;;;;;;;;;;;20.90;99.90;;;;;;5128279;27;19946;-75
2022/10/09 13:05:49;;;;;;;;;;;21.00;99.90;;;;;;5125803;27;19924;-75
2022/10/09 13:08:25;;;;;;;;;;;20.90;99.90;;;;;;5111029;28;19928;-75
2022/10/09 13:10:53;;;;;;;;;;;20.80;99.90;;;;;;5119811;27;20370;-75
2022/10/09 13:13:22;;;;;;;;;;;20.70;99.90;;;;;;5122226;27;20383;-75
2022/10/09 13:15:58;;;;;;;;;;;20.70;99.90;;;;;;5112493;27;19927;-75
2022/10/09 13:18:25;;;;;;;;;;;20.70;99.90;;;;;;5112831;27;20343;-75
2022/10/09 13:20:58;;;;;;;;;;;20.70;99.90;;;;;;5130398;27;19927;-75
2022/10/09 13:23:29;;;;;;;;;;;20.70;99.90;;;;;;5125148;27;19957;-75
2022/10/09 13:25:57;;;;;;;;;;;20.70;99.90;;;;;;5121422;27;20054;-75
2022/10/09 13:28:23;;;;;;;;;;;20.60;99.90;;;;;;5130896;27;19927;-75
2022/10/09 13:30:50;;;;;;;;;;;20.60;99.90;;;;;;5122026;27;19928;-75
2022/10/09 13:33:17;;;;;;;;;;;20.60;99.90;;;;;;5130729;27;20329;-75
2022/10/09 13:35:44;;;;;;;;;;;20.60;99.90;;;;;;5131201;27;19930;-75
2022/10/09 13:38:13;;;;;;;;;;;20.50;99.90;;;;;;5130898;27;20037;-75
2022/10/09 13:40:40;;;;;;;;;;;20.50;99.90;;;;;;5129609;27;19932;-75
2022/10/09 13:43:09;;;;;;;;;;;20.40;99.90;;;;;;5112110;28;20056;-75
2022/10/09 13:45:36;;;;;;;;;;;20.40;99.90;;;;;;5110159;28;19968;-75
2022/10/09 13:48:03;;;;;;;;;;;20.40;99.90;;;;;;5113598;27;19932;-75
2022/10/09 13:50:29;;;;;;;;;;;20.40;99.90;;;;;;5131029;27;19992;-75
2022/10/09 13:52:56;;;;;;;;;;;20.20;99.90;;;;;;5137308;22;19928;-81
2022/10/09 13:55:23;;;;;;;;;;;20.20;99.90;;;;;;5065338;28;19928;-80
2022/10/09 13:57:50;;;;;;;;;;;20.20;99.90;;;;;;5059653;28;20651;-81
2022/10/09 14:00:18;;;;;;;;;;;20.10;99.90;;;;;;5057128;28;20011;-80
2022/10/09 14:02:45;;;;;;;;;;;20.10;99.90;;;;;;5057878;28;20393;-80
2022/10/09 14:05:12;;;;;;;;;;;20.10;99.90;;;;;;5059600;28;19963;-80
2022/10/09 14:07:40;;;;;;;;;;;20.20;99.90;;;;;;5070839;28;19929;-80
2022/10/09 14:10:07;;;;;;;;;;;20.20;99.90;;;;;;5070912;28;19982;-81
2022/10/09 14:12:34;;;;;;;;;;;20.20;99.90;;;;;;5069482;28;19925;-80
2022/10/09 14:15:01;;;;;;;;;;;20.20;99.90;;;;;;5055071;28;19974;-79
2022/10/09 14:17:32;;;;;;;;;;;20.20;99.90;;;;;;5055566;28;20011;-78
2022/10/09 14:19:59;;;;;;;;;;;20.10;99.90;;;;;;5056423;28;19924;-78
2022/10/09 14:22:26;;;;;;;;;;;20.00;99.90;;;;;;5051826;28;19924;-79
2022/10/09 14:24:53;;;;;;;;;;;19.90;99.90;;;;;;5057084;28;19934;-79
2022/10/09 14:27:21;;;;;;;;;;;19.80;99.90;;;;;;5074303;28;19924;-80
2022/10/09 14:29:48;;;;;;;;;;;19.70;99.90;;;;;;5056010;28;20383;-79